createdAt,value
2018-09-26T00:00:39.751Z,11.70
2018-09-26T00:04:46.529Z,10.93
2018-09-26T00:08:49.146Z,12.00
2018-09-26T00:12:51.838Z,12.30
2018-09-26T00:16:54.426Z,11.50
2018-09-26T00:20:57.074Z,12.37
2018-09-26T00:24:59.639Z,11.10
2018-09-26T00:29:02.368Z,11.40
2018-09-26T00:33:05.126Z,10.90
2018-09-26T00:37:07.874Z,11.00
2018-09-26T00:41:10.491Z,11.17
2018-09-26T00:45:13.071Z,12.07
2018-09-26T00:49:15.679Z,10.30
2018-09-26T00:53:18.376Z,11.23
2018-09-26T00:57:21.035Z,11.53
2018-09-26T01:01:23.697Z,10.17
2018-09-26T01:05:26.381Z,10.83
2018-09-26T01:09:28.967Z,10.00
2018-09-26T01:13:32.417Z,9.87
2018-09-26T01:17:35.108Z,8.73
2018-09-26T01:21:44.284Z,8.67
2018-09-26T01:25:46.863Z,8.30
2018-09-26T01:29:49.484Z,9.03
2018-09-26T01:33:52.126Z,7.73
2018-09-26T01:37:54.668Z,6.90
2018-09-26T01:41:57.285Z,7.77
2018-09-26T01:45:59.881Z,6.47
2018-09-26T01:50:02.541Z,6.73
2018-09-26T01:54:05.200Z,6.53
2018-09-26T01:58:07.890Z,7.27
2018-09-26T02:02:10.552Z,7.40
2018-09-26T02:06:13.265Z,6.43
2018-09-26T02:10:16.002Z,6.03
2018-09-26T02:14:18.643Z,6.20
2018-09-26T02:18:21.256Z,5.93
2018-09-26T02:22:23.873Z,6.30
2018-09-26T02:26:26.772Z,5.97
2018-09-26T02:30:29.835Z,6.33
2018-09-26T02:34:32.720Z,5.93
2018-09-26T02:38:35.626Z,5.60
2018-09-26T02:42:38.502Z,5.30
2018-09-26T02:46:41.310Z,5.77
2018-09-26T02:50:44.255Z,5.13
2018-09-26T02:54:46.895Z,5.57
2018-09-26T02:58:49.505Z,5.60
2018-09-26T03:02:52.163Z,5.63
2018-09-26T03:06:54.760Z,4.87
2018-09-26T03:10:57.463Z,5.40
2018-09-26T03:15:00.035Z,4.70
2018-09-26T03:19:02.681Z,4.20
2018-09-26T03:23:05.371Z,4.47
2018-09-26T03:27:08.012Z,3.83
2018-09-26T03:31:10.771Z,4.37
2018-09-26T03:35:13.557Z,5.10
2018-09-26T03:39:16.192Z,5.10
2018-09-26T03:43:18.800Z,5.17
2018-09-26T03:47:21.383Z,5.60
2018-09-26T03:51:24.000Z,5.37
2018-09-26T03:55:26.613Z,5.87
2018-09-26T03:59:29.313Z,6.10
2018-09-26T04:03:31.973Z,5.23
2018-09-26T04:07:34.653Z,6.40
2018-09-26T04:11:37.299Z,6.00
2018-09-26T04:15:47.560Z,7.13
2018-09-26T04:19:50.410Z,6.53
2018-09-26T04:23:53.004Z,6.30
2018-09-26T04:27:55.571Z,6.40
2018-09-26T04:31:58.194Z,6.33
2018-09-26T04:36:00.831Z,5.90
2018-09-26T04:40:03.487Z,6.20
2018-09-26T04:44:06.136Z,7.00
2018-09-26T04:48:08.765Z,5.70
2018-09-26T04:52:11.388Z,6.40
2018-09-26T04:56:14.174Z,6.20
2018-09-26T05:00:16.905Z,6.23
2018-09-26T05:04:19.485Z,7.03
2018-09-26T05:08:22.225Z,7.07
2018-09-26T05:12:24.731Z,6.30
2018-09-26T05:16:27.269Z,6.07
2018-09-26T05:20:29.935Z,6.40
2018-09-26T05:24:35.288Z,6.07
2018-09-26T05:28:37.927Z,5.37
2018-09-26T05:32:40.520Z,5.30
2018-09-26T05:36:43.108Z,5.40
2018-09-26T05:40:45.715Z,5.13
2018-09-26T05:44:48.376Z,6.07
2018-09-26T05:48:51.017Z,6.40
2018-09-26T05:52:53.614Z,5.47
2018-09-26T05:56:56.140Z,5.83
2018-09-26T06:00:58.737Z,4.70
2018-09-26T06:05:01.263Z,5.67
2018-09-26T06:09:05.992Z,5.63
2018-09-26T06:13:08.726Z,6.00
2018-09-26T06:17:11.202Z,6.23
2018-09-26T06:21:13.766Z,4.40
2018-09-26T06:25:16.431Z,4.27
2018-09-26T06:29:19.055Z,4.37
2018-09-26T06:33:21.670Z,4.37
2018-09-26T06:37:24.240Z,3.90
2018-09-26T06:41:26.843Z,3.37
2018-09-26T06:45:29.437Z,3.20
2018-09-26T06:49:32.154Z,4.03
2018-09-26T06:53:34.718Z,4.10
2018-09-26T06:57:37.291Z,3.80
2018-09-26T07:01:39.923Z,3.00
2018-09-26T07:05:42.502Z,3.27
2018-09-26T07:09:47.146Z,3.37
2018-09-26T07:13:49.803Z,4.03
2018-09-26T07:17:52.384Z,3.17
2018-09-26T07:21:54.940Z,2.50
2018-09-26T07:25:57.437Z,2.40
2018-09-26T07:29:59.975Z,2.93
2018-09-26T07:34:02.544Z,3.40
2018-09-26T07:38:05.150Z,2.37
2018-09-26T07:42:07.678Z,2.13
2018-09-26T07:46:10.256Z,2.60
2018-09-26T07:50:12.838Z,3.23
2018-09-26T07:54:15.628Z,2.47
2018-09-26T07:58:18.146Z,2.10
2018-09-26T08:02:20.790Z,2.53
2018-09-26T08:06:23.376Z,2.00
2018-09-26T08:10:25.954Z,2.20
2018-09-26T08:14:28.486Z,2.10
2018-09-26T08:18:31.119Z,2.73
2018-09-26T08:22:33.676Z,2.40
2018-09-26T08:26:36.268Z,2.53
2018-09-26T08:30:38.854Z,2.00
2018-09-26T08:34:41.443Z,2.40
2018-09-26T08:38:44.067Z,2.23
2018-09-26T08:42:46.627Z,2.60
2018-09-26T08:46:49.253Z,3.20
2018-09-26T08:50:51.845Z,2.50
2018-09-26T08:54:54.407Z,2.60
2018-09-26T08:58:56.982Z,2.37
2018-09-26T09:02:59.539Z,2.13
2018-09-26T09:07:02.155Z,3.33
2018-09-26T09:11:04.766Z,11.03
2018-09-26T09:15:07.409Z,2.40
2018-09-26T09:19:10.056Z,2.07
2018-09-26T09:23:12.612Z,2.10
2018-09-26T09:27:15.287Z,1.93
2018-09-26T09:31:17.813Z,1.63
2018-09-26T09:35:20.577Z,1.90
2018-09-26T09:39:23.206Z,1.70
2018-09-26T09:43:25.823Z,2.20
2018-09-26T09:47:28.487Z,1.90
2018-09-26T09:51:31.016Z,2.10
2018-09-26T09:55:33.587Z,2.30
2018-09-26T09:59:36.185Z,2.37
2018-09-26T10:03:38.773Z,2.40
2018-09-26T10:07:41.316Z,2.30
2018-09-26T10:11:43.932Z,2.20
2018-09-26T10:15:46.522Z,2.33
2018-09-26T10:19:49.127Z,2.40
2018-09-26T10:23:51.768Z,2.03
2018-09-26T10:27:54.430Z,2.07
2018-09-26T10:31:57.014Z,2.63
2018-09-26T10:35:59.619Z,2.63
2018-09-26T10:40:02.214Z,2.47
2018-09-26T10:44:04.901Z,5.47
2018-09-26T10:48:07.502Z,2.63
2018-09-26T10:52:10.137Z,2.80
2018-09-26T10:56:12.794Z,2.37
2018-09-26T11:00:15.385Z,2.30
2018-09-26T11:04:17.965Z,3.13
2018-09-26T11:08:20.638Z,3.03
2018-09-26T11:12:23.146Z,2.33
2018-09-26T11:16:25.794Z,3.00
2018-09-26T11:20:28.597Z,5.67
2018-09-26T11:24:31.222Z,2.70
2018-09-26T11:28:33.849Z,3.70
2018-09-26T11:32:36.506Z,2.53
2018-09-26T11:36:39.123Z,2.50
2018-09-26T11:40:41.671Z,2.70
2018-09-26T11:44:44.259Z,2.47
2018-09-26T11:48:46.848Z,2.50
2018-09-26T11:52:49.455Z,2.47
2018-09-26T11:56:52.081Z,3.80
2018-09-26T12:00:54.687Z,2.30
2018-09-26T12:04:57.271Z,2.20
2018-09-26T12:08:59.856Z,2.30
2018-09-26T12:13:02.597Z,2.17
2018-09-26T12:17:05.182Z,2.90
2018-09-26T12:21:07.766Z,3.13
2018-09-26T12:25:10.373Z,2.70
2018-09-26T12:29:12.968Z,2.60
2018-09-26T12:33:15.536Z,2.10
2018-09-26T12:37:18.153Z,3.17
2018-09-26T12:41:20.762Z,2.63
2018-09-26T12:45:23.559Z,2.10
2018-09-26T12:49:26.234Z,2.70
2018-09-26T12:53:28.947Z,2.63
2018-09-26T12:57:31.648Z,2.50
2018-09-26T13:01:34.239Z,2.90
2018-09-26T13:05:36.821Z,2.30
2018-09-26T13:09:39.721Z,1.83
2018-09-26T13:13:42.577Z,2.40
2018-09-26T13:17:45.355Z,2.20
2018-09-26T13:21:47.956Z,2.13
2018-09-26T13:25:50.655Z,2.80
2018-09-26T13:29:53.292Z,2.43
2018-09-26T13:33:55.891Z,1.93
2018-09-26T13:37:58.584Z,2.17
2018-09-26T13:42:01.307Z,2.40
2018-09-26T13:46:04.060Z,1.97
2018-09-26T13:50:06.666Z,1.83
2018-09-26T13:54:09.386Z,1.83
2018-09-26T13:58:12.001Z,2.07
2018-09-26T14:02:14.681Z,1.93
2018-09-26T14:06:17.277Z,1.80
2018-09-26T14:10:19.961Z,1.70
2018-09-26T14:14:22.629Z,2.13
2018-09-26T14:18:25.310Z,1.70
2018-09-26T14:22:27.912Z,1.80
2018-09-26T14:26:30.385Z,1.40
2018-09-26T14:30:33.238Z,1.50
2018-09-26T14:34:35.833Z,1.90
2018-09-26T14:38:38.518Z,1.97
2018-09-26T14:42:41.272Z,1.70
2018-09-26T14:46:43.902Z,3.13
2018-09-26T14:50:47.565Z,2.13
2018-09-26T14:54:50.271Z,1.90
2018-09-26T14:58:52.887Z,2.00
2018-09-26T15:02:55.579Z,1.93
2018-09-26T15:06:58.235Z,1.73
2018-09-26T15:11:00.926Z,1.70
2018-09-26T15:15:03.706Z,1.63
2018-09-26T15:19:06.961Z,1.80
2018-09-26T15:23:13.058Z,2.10
2018-09-26T15:27:15.670Z,1.80
2018-09-26T15:31:18.267Z,11.27
2018-09-26T15:35:21.219Z,2.83
2018-09-26T15:39:24.020Z,2.43
2018-09-26T15:43:26.675Z,2.07
2018-09-26T15:47:29.325Z,2.30
2018-09-26T15:51:32.020Z,2.10
2018-09-26T15:55:35.013Z,1.90
2018-09-26T15:59:37.771Z,2.30
2018-09-26T16:03:40.505Z,2.60
2018-09-26T16:07:43.259Z,2.70
2018-09-26T16:11:45.993Z,2.30
2018-09-26T16:15:49.040Z,2.70
2018-09-26T16:19:51.725Z,2.50
2018-09-26T16:23:54.818Z,2.13
2018-09-26T16:27:57.658Z,3.10
2018-09-26T16:32:00.378Z,2.53
2018-09-26T16:36:03.043Z,2.67
2018-09-26T16:40:05.932Z,2.90
2018-09-26T16:44:08.593Z,2.57
2018-09-26T16:48:11.279Z,3.33
2018-09-26T16:52:13.984Z,3.07
2018-09-26T16:56:16.599Z,2.93
2018-09-26T17:00:19.361Z,3.27
2018-09-26T17:04:21.982Z,4.03
2018-09-26T17:08:24.711Z,3.40
2018-09-26T17:12:27.389Z,3.33
